Time;durP1;ratioP1;P1;durP2;ratioP2;P2;SDS_P1;SDS_P2;PMS_P1;PMS_P2;Temp;Humidity;BMP_temperature;BMP_pressure;BME280_temperature;BME280_humidity;BME280_pressure;Samples;Min_cycle;Max_cycle;Signal;HPM_P1;HPM_P2
2022/04/07 00:00:52;;;;;;;9.70;2.55;;;13.90;68.60;;;;;;7377123;19;20032;-84
2022/04/07 00:03:21;;;;;;;8.40;2.13;;;13.90;68.50;;;;;;7405772;19;20082;-85
2022/04/07 00:05:50;;;;;;;6.88;1.85;;;14.00;68.30;;;;;;7376042;19;20113;-84
2022/04/07 00:08:18;;;;;;;10.25;2.08;;;14.00;68.00;;;;;;7376943;19;20481;-84
2022/04/07 00:10:50;;;;;;;8.45;2.40;;;14.00;68.00;;;;;;7377723;19;20018;-85
2022/04/07 00:13:19;;;;;;;9.13;2.78;;;13.90;68.00;;;;;;7376097;19;21852;-85
2022/04/07 00:15:47;;;;;;;8.25;2.60;;;13.90;68.20;;;;;;7376063;19;20053;-85
2022/04/07 00:18:16;;;;;;;8.57;2.30;;;13.90;68.50;;;;;;7395699;19;20002;-85
2022/04/07 00:20:45;;;;;;;9.73;2.45;;;14.00;68.20;;;;;;7376768;19;20028;-85
2022/04/07 00:23:14;;;;;;;7.22;2.00;;;13.90;68.10;;;;;;7375301;19;20035;-85
2022/04/07 00:25:42;;;;;;;8.50;2.00;;;14.00;67.80;;;;;;7376651;19;20031;-86
2022/04/07 00:28:14;;;;;;;4.88;1.65;;;13.90;68.30;;;;;;7376714;19;20022;-84
2022/04/07 00:30:44;;;;;;;6.38;1.88;;;13.90;68.00;;;;;;7380573;19;20309;-85
2022/04/07 00:33:15;;;;;;;11.07;2.60;;;14.10;67.80;;;;;;7399686;19;20024;-85
2022/04/07 00:35:44;;;;;;;6.20;1.60;;;14.10;67.20;;;;;;7377457;19;20043;-85
2022/04/07 00:38:13;;;;;;;11.25;2.15;;;14.10;67.00;;;;;;7376980;19;20031;-85
2022/04/07 00:40:41;;;;;;;6.45;1.83;;;14.00;67.00;;;;;;7383080;19;20023;-84
2022/04/07 00:43:10;;;;;;;8.77;1.95;;;13.90;67.20;;;;;;7401710;19;21128;-85
2022/04/07 00:45:41;;;;;;;11.68;2.33;;;13.90;67.20;;;;;;7398762;19;20017;-84
2022/04/07 00:48:10;;;;;;;10.98;2.17;;;13.90;67.00;;;;;;7406844;19;20014;-85
2022/04/07 00:50:39;;;;;;;12.07;2.42;;;13.90;66.90;;;;;;7382610;19;20022;-84
2022/04/07 00:53:08;;;;;;;15.52;2.20;;;13.60;67.80;;;;;;7378828;19;20035;-85
2022/04/07 00:55:38;;;;;;;8.52;1.85;;;13.80;67.40;;;;;;7379359;19;20086;-84
2022/04/07 00:58:07;;;;;;;12.80;2.28;;;13.90;67.10;;;;;;7382667;19;20022;-85
2022/04/07 01:00:36;;;;;;;14.32;2.30;;;13.80;67.20;;;;;;7376217;19;20032;-83
2022/04/07 01:03:07;;;;;;;13.75;2.45;;;13.90;66.90;;;;;;7396729;19;20022;-85
2022/04/07 01:05:36;;;;;;;15.73;2.58;;;13.90;66.60;;;;;;7374269;19;20082;-85
2022/04/07 01:08:06;;;;;;;16.10;2.75;;;14.00;66.70;;;;;;7377580;19;20015;-86
2022/04/07 01:10:35;;;;;;;18.50;3.08;;;13.90;66.80;;;;;;7379291;19;20114;-85
2022/04/07 01:13:04;;;;;;;24.60;3.45;;;13.90;67.10;;;;;;7374258;19;20010;-85
2022/04/07 01:15:33;;;;;;;13.35;2.40;;;13.70;67.60;;;;;;7393567;19;20047;-85
2022/04/07 01:18:03;;;;;;;16.40;2.33;;;13.90;67.60;;;;;;7374597;19;20049;-85
2022/04/07 01:20:34;;;;;;;14.05;2.25;;;13.80;67.70;;;;;;7374930;19;20029;-86
2022/04/07 01:23:04;;;;;;;;;;;13.90;67.80;;;;;;7376678;19;20022;-85
2022/04/07 01:25:36;;;;;;;14.02;2.20;;;13.90;67.70;;;;;;7379669;19;19914;-86
2022/04/07 01:28:05;;;;;;;12.77;2.22;;;13.90;67.70;;;;;;7374164;19;20549;-85
2022/04/07 01:30:34;;;;;;;11.88;2.13;;;13.90;67.70;;;;;;7392328;19;20121;-83
2022/04/07 01:33:05;;;;;;;12.63;2.55;;;13.70;68.20;;;;;;7393308;19;20019;-84
2022/04/07 01:35:35;;;;;;;12.38;2.13;;;13.60;69.00;;;;;;7373616;19;20138;-85
2022/04/07 01:38:04;;;;;;;16.08;2.63;;;13.70;68.70;;;;;;7375182;19;20031;-85
2022/04/07 01:40:38;;;;;;;15.98;2.20;;;13.70;69.10;;;;;;7374563;19;20098;-85
2022/04/07 01:43:10;;;;;;;15.60;2.53;;;13.40;69.90;;;;;;7372234;19;20036;-84
2022/04/07 01:45:40;;;;;;;16.42;2.95;;;13.30;71.20;;;;;;7373186;19;20030;-84
2022/04/07 01:48:11;;;;;;;16.42;2.30;;;13.30;72.40;;;;;;7393067;19;20087;-85
2022/04/07 01:50:41;;;;;;;16.75;3.03;;;13.40;72.50;;;;;;7378553;19;20456;-85
2022/04/07 01:53:09;;;;;;;13.30;2.67;;;13.50;72.50;;;;;;7384699;19;20018;-84
2022/04/07 01:55:42;;;;;;;15.02;2.80;;;13.40;72.50;;;;;;7379694;19;20010;-85
2022/04/07 01:58:11;;;;;;;13.93;2.55;;;13.30;72.90;;;;;;7381273;19;20023;-84
2022/04/07 02:00:42;;;;;;;12.07;2.78;;;13.50;72.60;;;;;;7378117;19;20135;-84
2022/04/07 02:03:12;;;;;;;14.23;2.43;;;13.40;72.70;;;;;;7402800;19;20026;-84
2022/04/07 02:05:40;;;;;;;14.88;2.75;;;13.60;73.10;;;;;;7379138;19;20006;-85
2022/04/07 02:08:09;;;;;;;12.50;2.53;;;13.60;73.00;;;;;;7380470;19;20072;-84
2022/04/07 02:10:41;;;;;;;15.35;3.03;;;13.60;72.20;;;;;;7379139;19;20082;-84
2022/04/07 02:13:10;;;;;;;14.90;2.95;;;13.50;72.60;;;;;;7378834;19;20018;-83
2022/04/07 02:15:38;;;;;;;14.35;3.20;;;13.40;72.50;;;;;;7381477;19;20081;-83
2022/04/07 02:18:07;;;;;;;10.90;2.50;;;13.50;72.30;;;;;;7406052;19;20082;-84
2022/04/07 02:20:36;;;;;;;9.82;2.67;;;13.70;72.30;;;;;;7380315;19;20031;-84
2022/04/07 02:23:05;;;;;;;16.70;3.08;;;13.60;71.90;;;;;;7376451;19;20125;-84
2022/04/07 02:25:34;;;;;;;14.48;2.83;;;13.70;71.90;;;;;;7377732;19;20415;-84
2022/04/07 02:28:05;;;;;;;16.13;2.95;;;13.70;72.20;;;;;;7379562;19;20020;-84
2022/04/07 02:30:34;;;;;;;12.25;2.50;;;13.60;72.60;;;;;;7396290;19;20026;-81
2022/04/07 02:33:03;;;;;;;10.68;2.63;;;13.70;73.00;;;;;;7403727;19;20015;-84
2022/04/07 02:35:32;;;;;;;15.07;3.00;;;13.60;73.60;;;;;;7381599;19;20089;-85
2022/04/07 02:38:01;;;;;;;10.32;2.40;;;13.50;74.10;;;;;;7382176;19;20082;-85
2022/04/07 02:40:30;;;;;;;10.30;2.58;;;13.50;74.70;;;;;;7382595;19;20019;-85
2022/04/07 02:42:59;;;;;;;9.02;2.47;;;13.20;75.70;;;;;;7382332;19;20006;-86
2022/04/07 02:45:30;;;;;;;14.13;2.80;;;13.00;76.20;;;;;;7409542;19;20106;-86
2022/04/07 02:47:59;;;;;;;13.63;3.03;;;13.00;76.40;;;;;;7391974;19;20322;-85
2022/04/07 02:50:28;;;;;;;17.38;3.17;;;13.10;76.60;;;;;;7389590;19;20014;-85
2022/04/07 02:52:57;;;;;;;13.52;3.03;;;13.00;76.10;;;;;;7387282;19;20018;-85
2022/04/07 02:55:27;;;;;;;12.32;3.28;;;13.20;76.60;;;;;;7385711;19;20011;-86
2022/04/07 02:57:56;;;;;;;9.63;2.95;;;13.10;76.50;;;;;;7391061;19;20003;-85
2022/04/07 03:00:24;;;;;;;11.80;2.70;;;13.00;77.00;;;;;;7413019;19;20031;-85
2022/04/07 03:02:56;;;;;;;17.85;3.42;;;13.10;77.10;;;;;;7397063;19;20017;-85
2022/04/07 03:05:24;;;;;;;11.07;3.13;;;13.10;76.90;;;;;;7399855;19;20070;-85
2022/04/07 03:07:53;;;;;;;14.70;3.30;;;13.00;76.90;;;;;;7406827;19;20035;-85
2022/04/07 03:10:22;;;;;;;12.88;3.47;;;13.20;76.90;;;;;;7405732;19;20032;-85
2022/04/07 03:12:50;;;;;;;15.25;3.72;;;13.10;77.00;;;;;;7408176;19;20021;-85
2022/04/07 03:15:19;;;;;;;9.60;3.03;;;13.20;77.20;;;;;;7430212;19;20025;-86
2022/04/07 03:17:48;;;;;;;10.25;3.08;;;13.40;76.60;;;;;;7406933;19;20010;-85
2022/04/07 03:20:19;;;;;;;14.65;3.58;;;13.50;76.10;;;;;;7393457;19;20010;-86
2022/04/07 03:22:48;;;;;;;14.18;3.83;;;13.60;75.80;;;;;;7382985;19;20015;-86
2022/04/07 03:25:17;;;;;;;16.35;3.60;;;13.40;75.60;;;;;;7379305;19;20014;-86
2022/04/07 03:27:45;;;;;;;16.02;4.03;;;13.60;75.80;;;;;;7380036;19;20014;-86
2022/04/07 03:30:15;;;;;;;10.88;3.55;;;13.30;76.00;;;;;;7401207;19;20014;-86
2022/04/07 03:32:43;;;;;;;15.00;3.95;;;13.50;76.10;;;;;;7381991;19;20098;-86
2022/04/07 03:35:12;;;;;;;18.48;3.42;;;13.50;76.70;;;;;;7380508;19;20022;-84
2022/04/07 03:37:44;;;;;;;16.17;4.10;;;13.60;75.50;;;;;;7381173;19;20506;-85
2022/04/07 03:40:13;;;;;;;;;;;13.40;76.00;;;;;;7381716;19;20366;-85
2022/04/07 03:42:42;;;;;;;16.25;3.55;;;13.60;76.40;;;;;;7378622;19;19931;-85
2022/04/07 03:45:11;;;;;;;11.63;3.25;;;13.70;75.70;;;;;;7397069;19;20022;-85
2022/04/07 03:47:39;;;;;;;10.85;3.13;;;13.80;75.40;;;;;;7378935;19;20073;-84
2022/04/07 03:50:09;;;;;;;14.15;3.20;;;13.40;75.80;;;;;;7377748;19;20030;-84
2022/04/07 03:52:38;;;;;;;11.15;2.97;;;13.40;76.40;;;;;;7377652;19;20082;-85
2022/04/07 03:55:10;;;;;;;9.68;2.67;;;13.60;76.20;;;;;;7377436;19;20026;-85
2022/04/07 03:57:39;;;;;;;11.25;3.30;;;13.70;75.70;;;;;;7378111;19;20022;-85
2022/04/07 04:00:09;;;;;;;12.80;3.65;;;13.40;76.50;;;;;;7397456;19;20409;-85
2022/04/07 04:02:38;;;;;;;10.45;3.30;;;13.60;76.30;;;;;;7374878;19;20093;-85
2022/04/07 04:05:07;;;;;;;13.98;3.70;;;13.70;75.80;;;;;;7382030;19;20031;-85
2022/04/07 04:07:36;;;;;;;12.85;3.10;;;13.60;75.50;;;;;;7378730;19;20102;-85
2022/04/07 04:10:06;;;;;;;12.88;3.42;;;13.50;76.20;;;;;;7377305;19;20537;-84
2022/04/07 04:12:37;;;;;;;10.02;3.00;;;13.60;75.70;;;;;;7397656;19;20015;-79
2022/04/07 04:15:06;;;;;;;;;;;13.50;76.50;;;;;;7397261;19;20014;-84
2022/04/07 04:17:36;;;;;;;18.00;3.92;;;13.60;76.10;;;;;;7377603;19;20261;-84
2022/04/07 04:20:05;;;;;;;15.80;3.70;;;13.60;75.80;;;;;;7375680;19;20436;-85
2022/04/07 04:22:34;;;;;;;21.23;3.83;;;13.60;75.60;;;;;;7377689;19;20041;-85
2022/04/07 04:25:02;;;;;;;15.93;4.10;;;13.50;76.10;;;;;;7376327;19;20031;-84
2022/04/07 04:27:31;;;;;;;21.60;3.72;;;13.60;76.60;;;;;;7398963;19;20093;-85
2022/04/07 04:30:02;;;;;;;15.15;3.88;;;13.50;76.70;;;;;;7380747;19;20011;-85
2022/04/07 04:32:31;;;;;;;13.55;3.92;;;13.40;76.80;;;;;;7397938;19;20035;-84
2022/04/07 04:35:00;;;;;;;16.27;3.50;;;13.60;76.70;;;;;;7406522;19;20056;-85
2022/04/07 04:37:29;;;;;;;13.95;3.42;;;13.60;76.50;;;;;;7396635;19;20015;-85
2022/04/07 04:39:57;;;;;;;16.70;4.05;;;13.40;76.40;;;;;;7384504;19;20018;-85
2022/04/07 04:42:26;;;;;;;20.20;3.60;;;13.40;77.10;;;;;;7401338;19;20023;-85
2022/04/07 04:44:55;;;;;;;15.77;3.40;;;13.20;78.10;;;;;;7377064;19;20011;-84
2022/04/07 04:47:26;;;;;;;17.52;3.70;;;13.40;77.90;;;;;;7379744;19;20377;-84
2022/04/07 04:49:55;;;;;;;16.73;3.58;;;13.60;77.40;;;;;;7384446;19;20019;-84
2022/04/07 04:52:24;;;;;;;18.30;3.63;;;13.40;77.60;;;;;;7388623;19;20023;-85
2022/04/07 04:54:53;;;;;;;20.42;3.75;;;13.20;77.80;;;;;;7385800;19;20014;-84
2022/04/07 04:57:21;;;;;;;18.38;2.90;;;13.30;78.20;;;;;;7403656;19;20014;-86
2022/04/07 04:59:50;;;;;;;11.57;2.83;;;13.50;78.00;;;;;;7379902;19;20015;-85
2022/04/07 05:02:19;;;;;;;16.35;3.42;;;13.30;78.30;;;;;;7379852;19;20043;-86
2022/04/07 05:04:51;;;;;;;9.80;2.53;;;13.40;78.60;;;;;;7377328;19;20082;-86
2022/04/07 05:07:19;;;;;;;12.02;3.38;;;13.50;78.60;;;;;;7377973;19;20049;-86
2022/04/07 05:09:48;;;;;;;11.38;3.70;;;13.30;78.80;;;;;;7374528;19;20090;-84
2022/04/07 05:12:17;;;;;;;12.50;2.78;;;13.40;78.90;;;;;;7393772;19;20058;-85
2022/04/07 05:14:45;;;;;;;142.00;9.90;;;13.40;78.60;;;;;;7375137;19;20068;-85
2022/04/07 05:17:14;;;;;;;15.57;2.83;;;13.70;78.10;;;;;;7374316;19;20521;-86
2022/04/07 05:19:45;;;;;;;8.75;2.60;;;13.50;77.30;;;;;;7375488;19;20076;-85
2022/04/07 05:22:18;;;;;;;11.27;2.70;;;13.50;77.30;;;;;;7375478;19;20027;-86
2022/04/07 05:24:48;;;;;;;12.63;2.95;;;13.50;76.80;;;;;;7382835;19;20122;-87
2022/04/07 05:27:17;;;;;;;10.52;2.28;;;13.50;76.70;;;;;;7406156;19;20022;-87
2022/04/07 05:29:46;;;;;;;14.38;2.55;;;13.70;76.40;;;;;;7382150;19;20077;-86
2022/04/07 05:32:14;;;;;;;16.85;3.38;;;13.50;76.00;;;;;;7380438;19;20014;-86
2022/04/07 05:34:43;;;;;;;10.95;2.60;;;13.40;76.60;;;;;;7382527;19;20086;-86
2022/04/07 05:37:12;;;;;;;11.73;2.85;;;13.50;76.70;;;;;;7382818;19;20021;-86
2022/04/07 05:39:43;;;;;;;15.57;3.20;;;13.50;77.00;;;;;;7381770;19;20074;-86
2022/04/07 05:42:12;;;;;;;13.35;2.83;;;13.60;76.60;;;;;;7403151;19;20022;-86
2022/04/07 05:44:41;;;;;;;12.52;2.90;;;13.40;76.70;;;;;;7381298;19;20394;-86
2022/04/07 05:47:10;;;;;;;10.13;2.85;;;13.50;76.60;;;;;;7381551;19;20024;-86
2022/04/07 05:49:39;;;;;;;14.13;3.75;;;13.80;76.00;;;;;;7383042;19;20049;-86
2022/04/07 05:52:09;;;;;;;18.38;3.17;;;13.90;75.10;;;;;;7391186;19;20531;-85
2022/04/07 05:54:37;;;;;;;12.68;2.78;;;13.90;74.70;;;;;;7382552;19;20014;-86
2022/04/07 05:57:09;;;;;;;12.48;3.25;;;13.70;74.20;;;;;;7404204;19;20026;-88
2022/04/07 05:59:38;;;;;;;17.88;3.10;;;13.60;74.80;;;;;;7383168;19;20035;-87
2022/04/07 06:02:07;;;;;;;18.38;3.33;;;13.70;74.70;;;;;;7380282;19;20101;-87
2022/04/07 06:04:39;;;;;;;10.75;2.80;;;13.80;74.20;;;;;;7380405;19;20019;-87
2022/04/07 06:07:07;;;;;;;;;;;13.80;74.40;;;;;;7381005;19;20017;-87
2022/04/07 06:09:36;;;;;;;15.10;3.17;;;13.80;74.40;;;;;;7388895;19;19940;-86
2022/04/07 06:12:05;;;;;;;19.52;3.80;;;13.60;74.40;;;;;;7403214;19;20018;-87
2022/04/07 06:14:37;;;;;;;15.13;3.10;;;13.90;74.00;;;;;;7376561;19;20035;-87
2022/04/07 06:17:06;;;;;;;13.32;3.42;;;14.00;73.60;;;;;;7380831;19;20022;-88
2022/04/07 06:19:35;;;;;;;15.80;2.95;;;14.00;73.10;;;;;;7384787;19;20015;-88
2022/04/07 06:22:05;;;;;;;18.45;3.20;;;13.70;73.40;;;;;;7386099;19;20018;-86
2022/04/07 06:24:34;;;;;;;16.52;3.50;;;13.90;73.50;;;;;;7397275;19;20081;-85
2022/04/07 06:27:03;;;;;;;14.43;2.70;;;13.80;73.80;;;;;;7377809;19;20075;-87
2022/04/07 06:29:31;;;;;;;21.02;2.85;;;13.60;74.20;;;;;;7381093;19;20039;-86
2022/04/07 06:32:03;;;;;;;11.40;2.58;;;13.50;74.50;;;;;;7379577;19;20031;-86
2022/04/07 06:34:31;;;;;;;21.10;3.45;;;13.40;75.60;;;;;;7382499;19;20010;-87
2022/04/07 06:37:00;;;;;;;18.63;3.03;;;13.20;75.90;;;;;;7379829;19;20015;-87
2022/04/07 06:39:29;;;;;;;14.35;2.63;;;13.10;76.30;;;;;;7401141;19;20022;-87
2022/04/07 06:41:58;;;;;;;10.57;2.65;;;13.30;76.20;;;;;;7380730;19;20010;-87
2022/04/07 06:44:26;;;;;;;19.15;3.10;;;13.20;76.70;;;;;;7380192;19;20015;-87
2022/04/07 06:46:55;;;;;;;9.63;3.00;;;13.40;76.40;;;;;;7383013;19;20035;-86
2022/04/07 06:49:26;;;;;;;8.38;2.70;;;13.60;76.20;;;;;;7388237;19;20022;-87
2022/04/07 06:51:55;;;;;;;8.88;2.00;;;13.60;76.10;;;;;;7379579;19;20031;-87
2022/04/07 06:54:24;;;;;;;12.60;2.35;;;13.70;75.80;;;;;;7401248;19;20081;-87
2022/04/07 06:56:53;;;;;;;8.35;2.03;;;13.70;76.10;;;;;;7378408;19;20086;-85
2022/04/07 06:59:21;;;;;;;8.13;1.80;;;13.80;75.70;;;;;;7378894;19;20086;-85
2022/04/07 07:01:50;;;;;;;10.23;1.83;;;13.80;76.10;;;;;;7378353;19;20032;-85
2022/04/07 07:04:19;;;;;;;7.10;1.77;;;13.70;76.30;;;;;;7376812;19;20018;-82
2022/04/07 07:06:53;;;;;;;8.30;2.47;;;13.90;76.20;;;;;;7373935;19;20035;-84
2022/04/07 07:09:21;;;;;;;9.60;2.00;;;13.70;76.20;;;;;;7398761;19;20019;-84
2022/04/07 07:12:03;;;;;;;11.27;1.92;;;13.60;76.60;;;;;;7381161;19;20015;-85
2022/04/07 07:14:31;;;;;;;5.53;1.55;;;13.60;76.70;;;;;;7375208;19;20007;-83
2022/04/07 07:17:00;;;;;;;8.00;2.22;;;13.50;77.20;;;;;;7378159;19;20335;-82
2022/04/07 07:19:29;;;;;;;5.28;1.70;;;13.60;76.40;;;;;;7376269;19;20039;-80
2022/04/07 07:22:00;;;;;;;6.07;1.50;;;13.50;77.20;;;;;;7379475;19;20094;-82
2022/04/07 07:24:29;;;;;;;4.55;1.63;;;13.70;76.90;;;;;;7400490;19;20026;-83
2022/04/07 07:26:58;;;;;;;6.32;1.90;;;13.80;76.30;;;;;;7373326;19;20018;-82
2022/04/07 07:29:27;;;;;;;4.03;1.45;;;14.00;76.20;;;;;;7375302;19;20022;-82
2022/04/07 07:31:56;;;;;;;5.18;1.40;;;14.00;76.00;;;;;;7377312;19;20017;-83
2022/04/07 07:34:25;;;;;;;5.30;1.42;;;14.00;76.10;;;;;;7378350;19;20613;-82
2022/04/07 07:36:54;;;;;;;6.40;1.40;;;14.10;75.70;;;;;;7376239;19;20094;-82
2022/04/07 07:39:26;;;;;;;3.53;1.10;;;13.90;75.70;;;;;;7399083;19;20039;-82
2022/04/07 07:41:55;;;;;;;4.93;1.10;;;13.80;77.00;;;;;;7374191;19;20014;-82
2022/04/07 07:44:24;;;;;;;2.90;1.23;;;13.80;76.50;;;;;;7375935;19;20053;-82
2022/04/07 07:46:53;;;;;;;4.57;0.90;;;14.00;76.00;;;;;;7375529;19;20015;-83
2022/04/07 07:49:22;;;;;;;2.78;0.95;;;13.90;76.10;;;;;;7377537;19;20031;-85
2022/04/07 07:51:51;;;;;;;1.98;1.17;;;13.90;76.90;;;;;;7377666;19;20900;-85
2022/04/07 07:54:20;;;;;;;5.13;0.93;;;13.70;77.80;;;;;;7395726;19;20401;-84
2022/04/07 07:56:52;;;;;;;4.20;0.98;;;14.10;78.00;;;;;;7373759;19;20018;-84
2022/04/07 07:59:21;;;;;;;3.22;0.93;;;14.00;77.90;;;;;;7374619;19;20018;-82
2022/04/07 08:01:51;;;;;;;3.05;1.10;;;13.90;78.20;;;;;;7374414;19;20353;-82
2022/04/07 08:04:19;;;;;;;4.05;1.02;;;13.90;78.20;;;;;;7374246;19;20011;-83
2022/04/07 08:06:48;;;;;;;2.50;1.10;;;14.10;77.90;;;;;;7373942;19;20028;-85
2022/04/07 08:09:17;;;;;;;3.70;0.90;;;14.00;77.70;;;;;;7397657;19;20019;-85
2022/04/07 08:11:46;;;;;;;3.08;0.90;;;14.00;77.60;;;;;;7375532;19;20039;-84
2022/04/07 08:14:17;;;;;;;1.50;0.88;;;14.00;78.10;;;;;;7376491;19;20011;-84
2022/04/07 08:16:46;;;;;;;2.83;0.75;;;14.20;78.00;;;;;;7376908;19;20791;-84
2022/04/07 08:19:15;;;;;;;1.42;0.57;;;14.00;78.80;;;;;;7374713;19;20022;-83
2022/04/07 08:21:44;;;;;;;2.42;0.80;;;14.20;78.00;;;;;;7368688;19;20576;-83
2022/04/07 08:24:15;;;;;;;1.52;0.77;;;14.50;77.80;;;;;;7397287;19;20085;-84
2022/04/07 08:26:44;;;;;;;1.40;0.70;;;14.60;76.80;;;;;;7377931;19;20029;-85
2022/04/07 08:29:13;;;;;;;4.35;0.65;;;14.70;76.10;;;;;;7395941;19;20491;-85
2022/04/07 08:31:44;;;;;;;1.55;0.50;;;14.50;76.50;;;;;;7400643;19;20007;-85
2022/04/07 08:34:16;;;;;;;0.88;0.50;;;14.60;76.80;;;;;;7390346;19;20070;-85
2022/04/07 08:36:45;;;;;;;0.85;0.50;;;14.50;76.30;;;;;;7382755;19;20423;-86
2022/04/07 08:39:14;;;;;;;1.20;0.55;;;14.70;76.20;;;;;;7398957;19;20649;-82
2022/04/07 08:41:44;;;;;;;1.30;0.50;;;14.90;75.60;;;;;;7381076;19;20046;-83
2022/04/07 08:44:13;;;;;;;1.60;0.50;;;14.80;75.50;;;;;;7376292;19;20018;-84
2022/04/07 08:46:56;;;;;;;1.45;0.55;;;14.70;75.30;;;;;;7377172;19;20063;-85
2022/04/07 08:49:26;;;;;;;1.58;0.60;;;14.80;75.20;;;;;;7375312;19;20010;-85
2022/04/07 08:51:55;;;;;;;2.05;0.40;;;15.00;75.00;;;;;;7376433;19;20106;-82
2022/04/07 08:54:25;;;;;;;0.40;0.40;;;14.80;74.80;;;;;;7396836;19;20014;-81
2022/04/07 08:56:53;;;;;;;1.15;0.47;;;14.80;75.80;;;;;;7374684;19;20014;-83
2022/04/07 08:59:24;;;;;;;2.20;0.60;;;14.90;75.60;;;;;;7373811;19;20014;-82
2022/04/07 09:02:02;;;;;;;1.75;0.50;;;15.10;75.10;;;;;;7374020;19;20684;-83
2022/04/07 09:04:33;;;;;;;0.90;0.40;;;15.10;74.60;;;;;;7371448;19;20011;-84
2022/04/07 09:07:02;;;;;;;1.10;0.43;;;15.20;74.50;;;;;;7372993;19;20070;-82
2022/04/07 09:09:34;;;;;;;1.98;0.32;;;15.30;73.90;;;;;;7397416;19;20048;-83
2022/04/07 09:12:03;;;;;;;0.50;0.40;;;15.30;73.90;;;;;;7375712;19;20022;-83
2022/04/07 09:14:37;;;;;;;0.98;0.50;;;15.20;74.80;;;;;;7372550;19;20019;-82
2022/04/07 09:17:09;;;;;;;1.25;0.50;;;14.90;75.80;;;;;;7373845;19;20015;-84
2022/04/07 09:19:38;;;;;;;1.40;0.38;;;14.80;76.10;;;;;;7373413;19;20022;-85
2022/04/07 09:22:09;;;;;;;0.52;0.40;;;15.00;75.70;;;;;;7373488;19;20016;-83
2022/04/07 09:24:39;;;;;;;1.35;0.40;;;15.20;76.00;;;;;;7374628;19;20042;-83
2022/04/07 09:27:09;;;;;;;2.58;0.60;;;15.10;75.10;;;;;;7392904;19;20032;-80
2022/04/07 09:29:43;;;;;;;1.23;0.50;;;15.10;75.30;;;;;;7372818;19;20022;-85
2022/04/07 09:32:25;;;;;;;1.95;0.50;;;15.10;74.60;;;;;;7375304;19;20487;-84
2022/04/07 09:34:58;;;;;;;1.90;0.40;;;15.00;74.70;;;;;;7373006;19;20015;-84
2022/04/07 09:37:28;;;;;;;0.52;0.50;;;15.10;74.80;;;;;;7376910;19;20018;-84
2022/04/07 09:40:07;;;;;;;1.85;0.40;;;15.20;74.40;;;;;;7374785;19;20008;-84
2022/04/07 09:42:37;;;;;;;0.98;0.40;;;15.20;74.00;;;;;;7390724;19;20015;-85
2022/04/07 09:45:07;;;;;;;1.20;0.50;;;15.30;74.50;;;;;;7396009;19;20022;-84
2022/04/07 09:47:43;;;;;;;1.35;0.50;;;15.40;72.90;;;;;;7372968;19;20074;-84
2022/04/07 09:50:23;;;;;;;0.98;0.30;;;15.50;72.60;;;;;;7373438;19;20021;-85
2022/04/07 09:52:58;;;;;;;1.17;0.50;;;15.60;72.50;;;;;;7371447;19;20041;-84
2022/04/07 09:55:31;;;;;;;1.77;0.45;;;15.60;72.00;;;;;;7373074;19;20400;-84
2022/04/07 09:58:01;;;;;;;1.95;0.30;;;15.70;71.80;;;;;;7374226;19;20101;-84
2022/04/07 10:00:31;;;;;;;1.75;0.57;;;15.90;71.30;;;;;;7394557;19;20022;-86
2022/04/07 10:03:05;;;;;;;2.70;0.50;;;15.70;71.00;;;;;;7371028;19;20600;-86
2022/04/07 10:05:34;;;;;;;2.83;0.80;;;15.60;71.70;;;;;;7372994;19;20010;-86
2022/04/07 10:08:04;;;;;;;1.40;0.50;;;15.80;71.50;;;;;;7376322;19;20035;-86
2022/04/07 10:10:34;;;;;;;4.07;0.60;;;15.90;70.40;;;;;;7372983;19;20022;-86
2022/04/07 10:13:02;;;;;;;0.85;0.50;;;15.90;70.20;;;;;;7375775;19;20015;-85
2022/04/07 10:15:31;;;;;;;1.75;0.80;;;15.90;70.00;;;;;;7401806;19;20341;-83
2022/04/07 10:18:08;;;;;;;1.55;0.65;;;15.90;70.20;;;;;;7380625;19;20040;-84
2022/04/07 10:20:41;;;;;;;2.08;0.70;;;16.00;70.50;;;;;;7382648;19;20021;-83
2022/04/07 10:23:22;;;;;;;3.35;0.70;;;16.20;70.80;;;;;;7382192;19;20014;-82
2022/04/07 10:25:52;;;;;;;6.47;0.85;;;16.10;70.30;;;;;;7385714;19;20018;-80
2022/04/07 10:28:22;;;;;;;6.15;0.90;;;16.00;72.40;;;;;;7390314;19;20023;-86
2022/04/07 10:30:51;;;;;;;5.60;1.15;;;15.70;73.80;;;;;;7389621;19;20024;-87
2022/04/07 10:33:46;;;;;;;8.82;1.35;;;15.30;76.90;;;;;;7415206;19;20010;-86
2022/04/07 10:36:18;;;;;;;3.90;1.10;;;15.30;78.80;;;;;;7393223;19;20029;-86
2022/04/07 10:38:50;;;;;;;5.30;1.40;;;14.80;79.60;;;;;;7397000;19;20010;-85
2022/04/07 10:41:53;;;;;;;3.65;0.73;;;14.80;80.10;;;;;;7387960;19;20043;-91
2022/04/07 10:44:24;;;;;;;1.25;0.52;;;14.50;78.90;;;;;;7380495;19;20927;-85
2022/04/07 10:47:03;;;;;;;2.85;0.35;;;14.30;79.00;;;;;;7387525;19;20010;-82
2022/04/07 10:49:35;;;;;;;2.42;0.50;;;14.00;77.90;;;;;;7378406;19;20007;-81
2022/04/07 10:52:07;;;;;;;4.43;0.63;;;14.10;79.70;;;;;;7374521;19;20500;-83
2022/04/07 10:54:35;;;;;;;0.57;0.30;;;14.00;78.50;;;;;;7401896;19;20010;-84
2022/04/07 10:57:07;;;;;;;1.85;0.50;;;14.00;79.50;;;;;;7377334;19;20015;-83
2022/04/07 10:59:36;;;;;;;;;;;14.00;79.50;;;;;;7377459;19;20039;-82
2022/04/07 11:02:06;;;;;;;1.42;0.30;;;13.90;79.30;;;;;;7377651;19;19922;-82
2022/04/07 11:05:08;;;;;;;1.77;0.30;;;13.90;79.50;;;;;;7381979;19;20676;-82
2022/04/07 11:07:52;;;;;;;0.98;0.55;;;14.00;78.40;;;;;;7377660;19;20026;-82
2022/04/07 11:10:43;;;;;;;0.30;0.20;;;14.00;78.60;;;;;;7375888;19;20427;-81
2022/04/07 11:13:11;;;;;;;0.20;0.20;;;14.00;76.90;;;;;;7377348;19;20011;-84
2022/04/07 11:15:51;;;;;;;1.38;0.40;;;14.00;77.40;;;;;;7377406;19;20044;-84
2022/04/07 11:18:33;;;;;;;1.02;0.30;;;14.00;77.00;;;;;;7403199;19;20402;-88
2022/04/07 11:21:11;;;;;;;2.00;0.32;;;14.20;78.10;;;;;;7377406;19;20301;-85
2022/04/07 11:23:52;;;;;;;0.57;0.30;;;14.40;77.60;;;;;;7377369;19;20022;-84
2022/04/07 11:26:23;;;;;;;0.38;0.38;;;14.50;77.10;;;;;;7379135;19;20022;-85
2022/04/07 11:29:08;;;;;;;2.22;0.50;;;14.70;75.10;;;;;;7381770;19;20007;-85
2022/04/07 11:31:48;;;;;;;0.75;0.45;;;14.60;73.50;;;;;;7389721;19;20011;-85
2022/04/07 11:34:52;;;;;;;0.63;0.25;;;14.70;73.00;;;;;;7380349;19;20029;-85
2022/04/07 11:37:23;;;;;;;3.50;0.52;;;14.80;73.30;;;;;;7371382;19;20485;-85
2022/04/07 11:39:54;;;;;;;1.65;0.45;;;14.80;72.40;;;;;;7373776;19;20018;-85
2022/04/07 11:42:24;;;;;;;2.17;0.40;;;14.80;69.60;;;;;;7397154;19;20029;-83
2022/04/07 11:45:01;;;;;;;0.63;0.40;;;14.70;70.00;;;;;;7372790;19;20443;-83
2022/04/07 11:47:33;;;;;;;3.50;0.50;;;14.80;71.30;;;;;;7372694;19;20019;-83
2022/04/07 11:50:02;;;;;;;1.63;0.60;;;15.00;69.70;;;;;;7372430;19;20018;-84
2022/04/07 11:52:35;;;;;;;1.85;0.70;;;15.00;68.50;;;;;;7373105;19;20106;-84
2022/04/07 11:55:07;;;;;;;4.95;0.70;;;15.00;68.30;;;;;;7373121;19;20584;-84
2022/04/07 11:57:36;;;;;;;2.08;0.50;;;15.00;66.90;;;;;;7395791;19;20014;-84
2022/04/07 12:00:10;;;;;;;3.42;0.90;;;15.10;65.40;;;;;;7379438;19;20118;-84
2022/04/07 12:02:39;;;;;;;5.30;0.77;;;15.10;65.20;;;;;;7375645;19;20089;-84
2022/04/07 12:05:11;;;;;;;6.13;0.88;;;15.10;63.00;;;;;;7372622;19;20010;-83
2022/04/07 12:07:42;;;;;;;2.70;0.80;;;15.20;61.40;;;;;;7370659;19;20040;-85
2022/04/07 12:10:31;;;;;;;;;;;15.20;60.20;;;;;;7379332;19;20146;-86
2022/04/07 12:13:00;;;;;;;5.30;0.90;;;15.20;59.70;;;;;;7377409;19;19914;-83
2022/04/07 12:15:29;;;;;;;8.77;1.00;;;15.10;59.20;;;;;;7396266;19;20106;-83
2022/04/07 12:18:01;;;;;;;4.03;0.85;;;15.20;63.00;;;;;;7374671;19;20015;-85
2022/04/07 12:20:30;;;;;;;7.32;1.17;;;15.40;65.20;;;;;;7374936;19;20138;-82
2022/04/07 12:23:12;;;;;;;8.05;1.23;;;15.50;64.80;;;;;;7375173;19;20015;-82
2022/04/07 12:25:42;;;;;;;12.13;1.48;;;15.70;64.20;;;;;;7381690;19;20062;-85
2022/04/07 12:28:13;;;;;;;7.88;1.23;;;15.70;61.60;;;;;;7393883;19;20014;-86
2022/04/07 12:30:45;;;;;;;6.78;1.30;;;15.60;59.80;;;;;;7404771;19;20010;-83
2022/04/07 12:33:34;;;;;;;7.68;1.40;;;15.60;59.60;;;;;;7422528;19;20029;-85
2022/04/07 12:36:03;;;;;;;5.75;1.83;;;15.50;59.30;;;;;;7383735;19;20059;-78
2022/04/07 12:38:35;;;;;;;8.07;1.75;;;15.50;59.10;;;;;;7379860;19;20090;-79
2022/04/07 12:41:13;;;;;;;7.82;1.48;;;15.40;60.10;;;;;;7378888;19;20491;-78
2022/04/07 12:43:50;;;;;;;10.55;2.42;;;15.40;59.40;;;;;;7374174;19;20035;-78
2022/04/07 12:46:19;;;;;;;6.25;1.45;;;15.50;61.00;;;;;;7372370;19;20450;-78
2022/04/07 12:49:05;;;;;;;10.13;2.03;;;15.70;60.50;;;;;;7371809;19;20022;-79
2022/04/07 12:51:35;;;;;;;15.98;1.50;;;15.80;58.80;;;;;;7395031;19;20022;-79
2022/04/07 12:54:14;;;;;;;13.57;2.00;;;15.70;59.80;;;;;;7372499;19;20014;-79
2022/04/07 12:56:46;;;;;;;11.98;1.63;;;15.70;57.30;;;;;;7371660;19;20421;-78
2022/04/07 12:59:17;;;;;;;13.18;1.95;;;15.60;57.20;;;;;;7371287;19;20101;-79
2022/04/07 13:01:49;;;;;;;11.05;2.08;;;15.60;57.90;;;;;;7371539;19;20027;-79